sensor_id;sensor_type;location;lat;lon;timestamp;P1;durP1;ratioP1;P2;durP2;ratioP2
66663;SDS011;59683;51.428;-1.994;2023-11-22T00:00:51;13.93;;;5.40;;
66663;SDS011;59683;51.428;-1.994;2023-11-22T00:03:16;14.00;;;6.17;;
66663;SDS011;59683;51.428;-1.994;2023-11-22T00:05:41;17.70;;;7.03;;
66663;SDS011;59683;51.428;-1.994;2023-11-22T00:08:07;16.87;;;7.20;;
66663;SDS011;59683;51.428;-1.994;2023-11-22T00:10:32;14.53;;;6.13;;
66663;SDS011;59683;51.428;-1.994;2023-11-22T00:12:58;19.17;;;7.00;;
66663;SDS011;59683;51.428;-1.994;2023-11-22T00:15:23;20.07;;;7.57;;
66663;SDS011;59683;51.428;-1.994;2023-11-22T00:17:49;18.93;;;7.70;;
66663;SDS011;59683;51.428;-1.994;2023-11-22T00:20:14;21.03;;;8.80;;
66663;SDS011;59683;51.428;-1.994;2023-11-22T00:22:39;18.97;;;6.77;;
66663;SDS011;59683;51.428;-1.994;2023-11-22T00:25:05;14.77;;;6.20;;
66663;SDS011;59683;51.428;-1.994;2023-11-22T00:27:31;14.67;;;6.20;;
66663;SDS011;59683;51.428;-1.994;2023-11-22T00:29:57;16.63;;;6.33;;
66663;SDS011;59683;51.428;-1.994;2023-11-22T00:32:23;14.60;;;6.85;;
66663;SDS011;59683;51.428;-1.994;2023-11-22T00:34:48;14.30;;;6.10;;
66663;SDS011;59683;51.428;-1.994;2023-11-22T00:37:14;12.50;;;5.87;;
66663;SDS011;59683;51.428;-1.994;2023-11-22T00:39:40;12.88;;;6.07;;
66663;SDS011;59683;51.428;-1.994;2023-11-22T00:42:06;13.00;;;6.35;;
66663;SDS011;59683;51.428;-1.994;2023-11-22T00:44:32;18.80;;;7.53;;
66663;SDS011;59683;51.428;-1.994;2023-11-22T00:46:57;16.50;;;6.97;;
66663;SDS011;59683;51.428;-1.994;2023-11-22T00:49:23;15.43;;;6.93;;
66663;SDS011;59683;51.428;-1.994;2023-11-22T00:51:48;15.97;;;6.87;;
66663;SDS011;59683;51.428;-1.994;2023-11-22T00:54:15;15.95;;;6.97;;
66663;SDS011;59683;51.428;-1.994;2023-11-22T00:56:41;18.63;;;7.13;;
66663;SDS011;59683;51.428;-1.994;2023-11-22T00:59:06;19.10;;;7.00;;
66663;SDS011;59683;51.428;-1.994;2023-11-22T01:01:31;16.33;;;6.83;;
66663;SDS011;59683;51.428;-1.994;2023-11-22T01:03:57;17.23;;;8.13;;
66663;SDS011;59683;51.428;-1.994;2023-11-22T01:06:23;14.17;;;6.37;;
66663;SDS011;59683;51.428;-1.994;2023-11-22T01:08:48;24.37;;;8.30;;
66663;SDS011;59683;51.428;-1.994;2023-11-22T01:11:14;18.70;;;8.60;;
66663;SDS011;59683;51.428;-1.994;2023-11-22T01:13:39;22.87;;;8.07;;
66663;SDS011;59683;51.428;-1.994;2023-11-22T01:16:08;23.55;;;7.60;;
66663;SDS011;59683;51.428;-1.994;2023-11-22T01:18:35;18.13;;;8.00;;
66663;SDS011;59683;51.428;-1.994;2023-11-22T01:21:01;21.73;;;8.03;;
66663;SDS011;59683;51.428;-1.994;2023-11-22T01:23:26;19.17;;;7.13;;
66663;SDS011;59683;51.428;-1.994;2023-11-22T01:25:53;17.17;;;7.30;;
66663;SDS011;59683;51.428;-1.994;2023-11-22T01:28:18;14.43;;;7.00;;
66663;SDS011;59683;51.428;-1.994;2023-11-22T01:30:44;16.90;;;6.57;;
66663;SDS011;59683;51.428;-1.994;2023-11-22T01:33:11;18.38;;;7.88;;
66663;SDS011;59683;51.428;-1.994;2023-11-22T01:35:37;26.83;;;7.95;;
66663;SDS011;59683;51.428;-1.994;2023-11-22T01:38:03;18.88;;;7.82;;
66663;SDS011;59683;51.428;-1.994;2023-11-22T01:40:29;18.70;;;8.25;;
66663;SDS011;59683;51.428;-1.994;2023-11-22T01:42:57;16.05;;;7.65;;
66663;SDS011;59683;51.428;-1.994;2023-11-22T01:45:23;21.52;;;7.95;;
66663;SDS011;59683;51.428;-1.994;2023-11-22T01:47:49;14.20;;;6.40;;
66663;SDS011;59683;51.428;-1.994;2023-11-22T01:50:15;17.35;;;7.47;;
66663;SDS011;59683;51.428;-1.994;2023-11-22T01:52:41;21.67;;;7.57;;
66663;SDS011;59683;51.428;-1.994;2023-11-22T01:55:08;20.83;;;8.20;;
66663;SDS011;59683;51.428;-1.994;2023-11-22T01:57:34;18.38;;;8.60;;
66663;SDS011;59683;51.428;-1.994;2023-11-22T02:00:01;21.05;;;8.70;;
66663;SDS011;59683;51.428;-1.994;2023-11-22T02:02:28;19.48;;;8.55;;
66663;SDS011;59683;51.428;-1.994;2023-11-22T02:04:55;21.08;;;8.77;;
66663;SDS011;59683;51.428;-1.994;2023-11-22T02:07:20;18.67;;;8.03;;
66663;SDS011;59683;51.428;-1.994;2023-11-22T02:09:45;14.83;;;7.90;;
66663;SDS011;59683;51.428;-1.994;2023-11-22T02:12:11;21.63;;;8.63;;
66663;SDS011;59683;51.428;-1.994;2023-11-22T02:14:37;21.38;;;8.30;;
66663;SDS011;59683;51.428;-1.994;2023-11-22T02:17:03;20.73;;;8.90;;
66663;SDS011;59683;51.428;-1.994;2023-11-22T02:19:28;25.60;;;8.13;;
66663;SDS011;59683;51.428;-1.994;2023-11-22T02:21:55;18.42;;;7.45;;
66663;SDS011;59683;51.428;-1.994;2023-11-22T02:24:21;16.50;;;7.93;;
66663;SDS011;59683;51.428;-1.994;2023-11-22T02:26:46;21.17;;;8.97;;
66663;SDS011;59683;51.428;-1.994;2023-11-22T02:29:12;23.40;;;8.83;;
66663;SDS011;59683;51.428;-1.994;2023-11-22T02:31:39;22.20;;;8.67;;
66663;SDS011;59683;51.428;-1.994;2023-11-22T02:34:06;22.95;;;9.23;;
66663;SDS011;59683;51.428;-1.994;2023-11-22T02:36:31;18.47;;;8.37;;
66663;SDS011;59683;51.428;-1.994;2023-11-22T02:38:57;26.83;;;8.83;;
66663;SDS011;59683;51.428;-1.994;2023-11-22T02:41:23;20.57;;;8.53;;
66663;SDS011;59683;51.428;-1.994;2023-11-22T02:43:50;21.40;;;8.95;;
66663;SDS011;59683;51.428;-1.994;2023-11-22T02:46:16;19.67;;;8.57;;
66663;SDS011;59683;51.428;-1.994;2023-11-22T02:48:41;18.80;;;7.97;;
66663;SDS011;59683;51.428;-1.994;2023-11-22T02:51:06;17.03;;;8.17;;
66663;SDS011;59683;51.428;-1.994;2023-11-22T02:53:32;20.87;;;8.57;;
66663;SDS011;59683;51.428;-1.994;2023-11-22T02:56:00;20.27;;;9.10;;
66663;SDS011;59683;51.428;-1.994;2023-11-22T02:58:29;20.52;;;9.10;;
66663;SDS011;59683;51.428;-1.994;2023-11-22T03:00:54;19.67;;;8.40;;
66663;SDS011;59683;51.428;-1.994;2023-11-22T03:03:22;17.65;;;7.32;;
66663;SDS011;59683;51.428;-1.994;2023-11-22T03:05:48;16.90;;;7.65;;
66663;SDS011;59683;51.428;-1.994;2023-11-22T03:08:15;16.40;;;8.15;;
66663;SDS011;59683;51.428;-1.994;2023-11-22T03:10:41;23.00;;;7.27;;
66663;SDS011;59683;51.428;-1.994;2023-11-22T03:13:07;16.67;;;8.27;;
66663;SDS011;59683;51.428;-1.994;2023-11-22T03:15:33;18.90;;;7.82;;
66663;SDS011;59683;51.428;-1.994;2023-11-22T03:17:59;22.37;;;8.83;;
66663;SDS011;59683;51.428;-1.994;2023-11-22T03:20:25;20.43;;;7.33;;
66663;SDS011;59683;51.428;-1.994;2023-11-22T03:22:50;19.00;;;7.80;;
66663;SDS011;59683;51.428;-1.994;2023-11-22T03:25:15;16.57;;;7.83;;
66663;SDS011;59683;51.428;-1.994;2023-11-22T03:27:41;18.97;;;8.70;;
66663;SDS011;59683;51.428;-1.994;2023-11-22T03:30:06;21.97;;;9.57;;
66663;SDS011;59683;51.428;-1.994;2023-11-22T03:32:39;18.55;;;9.05;;
66663;SDS011;59683;51.428;-1.994;2023-11-22T03:35:08;21.60;;;9.57;;
66663;SDS011;59683;51.428;-1.994;2023-11-22T03:37:34;24.02;;;9.77;;
66663;SDS011;59683;51.428;-1.994;2023-11-22T03:40:00;21.07;;;9.87;;
66663;SDS011;59683;51.428;-1.994;2023-11-22T03:42:25;23.93;;;10.00;;
66663;SDS011;59683;51.428;-1.994;2023-11-22T03:44:54;21.50;;;9.50;;
66663;SDS011;59683;51.428;-1.994;2023-11-22T03:47:19;25.10;;;10.70;;
66663;SDS011;59683;51.428;-1.994;2023-11-22T03:49:45;23.37;;;9.87;;
66663;SDS011;59683;51.428;-1.994;2023-11-22T03:52:11;23.00;;;10.57;;
66663;SDS011;59683;51.428;-1.994;2023-11-22T03:54:37;22.70;;;10.25;;
66663;SDS011;59683;51.428;-1.994;2023-11-22T03:57:03;25.73;;;10.57;;
66663;SDS011;59683;51.428;-1.994;2023-11-22T03:59:29;21.70;;;9.23;;
66663;SDS011;59683;51.428;-1.994;2023-11-22T04:01:55;23.47;;;9.83;;
66663;SDS011;59683;51.428;-1.994;2023-11-22T04:04:20;22.98;;;9.20;;
66663;SDS011;59683;51.428;-1.994;2023-11-22T04:06:46;23.40;;;9.70;;
66663;SDS011;59683;51.428;-1.994;2023-11-22T04:09:11;25.73;;;10.57;;
66663;SDS011;59683;51.428;-1.994;2023-11-22T04:11:37;25.70;;;10.00;;
66663;SDS011;59683;51.428;-1.994;2023-11-22T04:14:03;23.23;;;9.53;;
66663;SDS011;59683;51.428;-1.994;2023-11-22T04:16:29;20.53;;;9.97;;
66663;SDS011;59683;51.428;-1.994;2023-11-22T04:18:54;23.30;;;9.93;;
66663;SDS011;59683;51.428;-1.994;2023-11-22T04:21:19;28.60;;;10.30;;
66663;SDS011;59683;51.428;-1.994;2023-11-22T04:23:44;24.73;;;9.90;;
66663;SDS011;59683;51.428;-1.994;2023-11-22T04:26:10;21.43;;;9.83;;
66663;SDS011;59683;51.428;-1.994;2023-11-22T04:28:35;28.60;;;10.57;;
66663;SDS011;59683;51.428;-1.994;2023-11-22T04:31:01;23.27;;;10.07;;
66663;SDS011;59683;51.428;-1.994;2023-11-22T04:33:26;19.67;;;9.70;;
66663;SDS011;59683;51.428;-1.994;2023-11-22T04:35:55;23.92;;;10.65;;
66663;SDS011;59683;51.428;-1.994;2023-11-22T04:38:21;28.33;;;11.23;;
66663;SDS011;59683;51.428;-1.994;2023-11-22T04:40:46;28.40;;;11.60;;
66663;SDS011;59683;51.428;-1.994;2023-11-22T04:43:12;25.58;;;11.45;;
66663;SDS011;59683;51.428;-1.994;2023-11-22T04:45:38;34.83;;;12.70;;
66663;SDS011;59683;51.428;-1.994;2023-11-22T04:48:04;36.70;;;12.97;;
66663;SDS011;59683;51.428;-1.994;2023-11-22T04:50:29;30.57;;;12.37;;
66663;SDS011;59683;51.428;-1.994;2023-11-22T04:52:55;30.63;;;12.97;;
66663;SDS011;59683;51.428;-1.994;2023-11-22T04:55:20;39.37;;;14.47;;
66663;SDS011;59683;51.428;-1.994;2023-11-22T04:57:48;36.72;;;14.13;;
66663;SDS011;59683;51.428;-1.994;2023-11-22T05:00:13;38.87;;;15.03;;
66663;SDS011;59683;51.428;-1.994;2023-11-22T05:02:39;40.50;;;16.03;;
66663;SDS011;59683;51.428;-1.994;2023-11-22T05:05:05;34.70;;;15.13;;
66663;SDS011;59683;51.428;-1.994;2023-11-22T05:07:31;37.47;;;14.73;;
66663;SDS011;59683;51.428;-1.994;2023-11-22T05:09:57;39.57;;;17.10;;
66663;SDS011;59683;51.428;-1.994;2023-11-22T05:12:22;48.07;;;16.60;;
66663;SDS011;59683;51.428;-1.994;2023-11-22T05:14:49;40.67;;;16.00;;
66663;SDS011;59683;51.428;-1.994;2023-11-22T05:17:14;35.88;;;14.85;;
66663;SDS011;59683;51.428;-1.994;2023-11-22T05:19:40;44.03;;;15.50;;
66663;SDS011;59683;51.428;-1.994;2023-11-22T05:22:06;33.47;;;14.93;;
66663;SDS011;59683;51.428;-1.994;2023-11-22T05:24:32;39.55;;;15.32;;
66663;SDS011;59683;51.428;-1.994;2023-11-22T05:26:59;38.00;;;15.25;;
66663;SDS011;59683;51.428;-1.994;2023-11-22T05:29:25;42.23;;;14.90;;
66663;SDS011;59683;51.428;-1.994;2023-11-22T05:31:50;35.17;;;15.93;;
66663;SDS011;59683;51.428;-1.994;2023-11-22T05:34:17;37.95;;;14.40;;
66663;SDS011;59683;51.428;-1.994;2023-11-22T05:36:43;43.23;;;16.53;;
66663;SDS011;59683;51.428;-1.994;2023-11-22T05:39:08;38.87;;;15.43;;
66663;SDS011;59683;51.428;-1.994;2023-11-22T05:41:33;32.83;;;14.53;;
66663;SDS011;59683;51.428;-1.994;2023-11-22T05:43:59;35.23;;;14.37;;
66663;SDS011;59683;51.428;-1.994;2023-11-22T05:46:24;38.50;;;16.73;;
66663;SDS011;59683;51.428;-1.994;2023-11-22T05:48:51;40.58;;;15.68;;
66663;SDS011;59683;51.428;-1.994;2023-11-22T05:51:17;40.38;;;15.25;;
66663;SDS011;59683;51.428;-1.994;2023-11-22T05:53:43;43.77;;;15.97;;
66663;SDS011;59683;51.428;-1.994;2023-11-22T05:56:08;41.20;;;16.47;;
66663;SDS011;59683;51.428;-1.994;2023-11-22T05:58:34;48.87;;;17.13;;
66663;SDS011;59683;51.428;-1.994;2023-11-22T06:01:06;42.10;;;17.15;;
66663;SDS011;59683;51.428;-1.994;2023-11-22T06:03:36;45.88;;;16.70;;
66663;SDS011;59683;51.428;-1.994;2023-11-22T06:06:03;46.25;;;16.75;;
66663;SDS011;59683;51.428;-1.994;2023-11-22T06:08:29;47.53;;;16.50;;
66663;SDS011;59683;51.428;-1.994;2023-11-22T06:10:56;43.95;;;17.02;;
66663;SDS011;59683;51.428;-1.994;2023-11-22T06:13:23;42.22;;;16.60;;
66663;SDS011;59683;51.428;-1.994;2023-11-22T06:15:48;45.87;;;17.37;;
66663;SDS011;59683;51.428;-1.994;2023-11-22T06:18:14;50.33;;;17.63;;
66663;SDS011;59683;51.428;-1.994;2023-11-22T06:20:40;47.20;;;16.50;;
66663;SDS011;59683;51.428;-1.994;2023-11-22T06:23:08;47.20;;;16.83;;
66663;SDS011;59683;51.428;-1.994;2023-11-22T06:25:34;42.83;;;17.43;;
66663;SDS011;59683;51.428;-1.994;2023-11-22T06:28:02;46.85;;;17.63;;
66663;SDS011;59683;51.428;-1.994;2023-11-22T06:30:28;47.07;;;17.13;;
66663;SDS011;59683;51.428;-1.994;2023-11-22T06:32:55;45.55;;;17.27;;
66663;SDS011;59683;51.428;-1.994;2023-11-22T06:35:21;53.23;;;18.17;;
66663;SDS011;59683;51.428;-1.994;2023-11-22T06:37:46;52.07;;;18.30;;
66663;SDS011;59683;51.428;-1.994;2023-11-22T06:40:11;52.83;;;18.23;;
66663;SDS011;59683;51.428;-1.994;2023-11-22T06:42:41;51.35;;;19.35;;
66663;SDS011;59683;51.428;-1.994;2023-11-22T06:45:07;53.03;;;16.30;;
66663;SDS011;59683;51.428;-1.994;2023-11-22T06:47:37;45.90;;;17.70;;
66663;SDS011;59683;51.428;-1.994;2023-11-22T06:50:06;52.58;;;18.35;;
66663;SDS011;59683;51.428;-1.994;2023-11-22T06:52:40;56.05;;;19.83;;
66663;SDS011;59683;51.428;-1.994;2023-11-22T06:55:06;53.58;;;19.00;;
66663;SDS011;59683;51.428;-1.994;2023-11-22T06:57:33;51.10;;;17.92;;
66663;SDS011;59683;51.428;-1.994;2023-11-22T06:59:59;47.53;;;18.52;;
66663;SDS011;59683;51.428;-1.994;2023-11-22T07:02:26;50.03;;;18.98;;
66663;SDS011;59683;51.428;-1.994;2023-11-22T07:04:51;45.33;;;19.30;;
66663;SDS011;59683;51.428;-1.994;2023-11-22T07:07:17;51.50;;;17.33;;
66663;SDS011;59683;51.428;-1.994;2023-11-22T07:09:42;49.87;;;17.83;;
66663;SDS011;59683;51.428;-1.994;2023-11-22T07:12:08;45.30;;;18.70;;
66663;SDS011;59683;51.428;-1.994;2023-11-22T07:14:33;51.47;;;18.67;;
66663;SDS011;59683;51.428;-1.994;2023-11-22T07:16:59;43.67;;;16.87;;
66663;SDS011;59683;51.428;-1.994;2023-11-22T07:19:24;53.93;;;18.37;;
66663;SDS011;59683;51.428;-1.994;2023-11-22T07:21:50;57.07;;;19.30;;
66663;SDS011;59683;51.428;-1.994;2023-11-22T07:24:15;52.57;;;19.27;;
66663;SDS011;59683;51.428;-1.994;2023-11-22T07:26:41;45.00;;;17.33;;
66663;SDS011;59683;51.428;-1.994;2023-11-22T07:29:09;52.35;;;18.27;;
66663;SDS011;59683;51.428;-1.994;2023-11-22T07:31:36;59.63;;;19.40;;
66663;SDS011;59683;51.428;-1.994;2023-11-22T07:34:02;52.20;;;17.73;;
66663;SDS011;59683;51.428;-1.994;2023-11-22T07:36:28;51.63;;;19.43;;
66663;SDS011;59683;51.428;-1.994;2023-11-22T07:38:53;46.90;;;18.50;;
66663;SDS011;59683;51.428;-1.994;2023-11-22T07:41:19;53.47;;;18.67;;
66663;SDS011;59683;51.428;-1.994;2023-11-22T07:43:46;47.65;;;17.15;;
66663;SDS011;59683;51.428;-1.994;2023-11-22T07:46:11;39.90;;;17.10;;
66663;SDS011;59683;51.428;-1.994;2023-11-22T07:48:42;42.38;;;17.98;;
66663;SDS011;59683;51.428;-1.994;2023-11-22T07:51:08;43.75;;;16.30;;
66663;SDS011;59683;51.428;-1.994;2023-11-22T07:53:34;50.90;;;15.80;;
66663;SDS011;59683;51.428;-1.994;2023-11-22T07:56:00;44.73;;;17.10;;
66663;SDS011;59683;51.428;-1.994;2023-11-22T08:00:55;46.03;;;17.30;;
66663;SDS011;59683;51.428;-1.994;2023-11-22T08:03:20;46.33;;;16.67;;
66663;SDS011;59683;51.428;-1.994;2023-11-22T08:05:50;42.58;;;17.48;;
66663;SDS011;59683;51.428;-1.994;2023-11-22T08:08:19;49.90;;;17.85;;
66663;SDS011;59683;51.428;-1.994;2023-11-22T08:10:45;42.33;;;16.48;;
66663;SDS011;59683;51.428;-1.994;2023-11-22T08:13:12;41.22;;;15.07;;
66663;SDS011;59683;51.428;-1.994;2023-11-22T08:15:38;47.27;;;15.73;;
66663;SDS011;59683;51.428;-1.994;2023-11-22T08:18:04;39.10;;;15.77;;
66663;SDS011;59683;51.428;-1.994;2023-11-22T08:20:30;39.28;;;15.55;;
66663;SDS011;59683;51.428;-1.994;2023-11-22T08:22:56;44.13;;;14.63;;
66663;SDS011;59683;51.428;-1.994;2023-11-22T08:25:22;38.73;;;15.47;;
66663;SDS011;59683;51.428;-1.994;2023-11-22T08:27:47;39.67;;;14.77;;
66663;SDS011;59683;51.428;-1.994;2023-11-22T08:30:13;30.97;;;12.63;;
66663;SDS011;59683;51.428;-1.994;2023-11-22T08:32:43;37.05;;;13.05;;
66663;SDS011;59683;51.428;-1.994;2023-11-22T08:35:10;44.25;;;13.52;;
66663;SDS011;59683;51.428;-1.994;2023-11-22T08:37:35;28.33;;;12.03;;
66663;SDS011;59683;51.428;-1.994;2023-11-22T08:40:03;36.10;;;12.60;;
66663;SDS011;59683;51.428;-1.994;2023-11-22T08:42:30;35.20;;;12.38;;
66663;SDS011;59683;51.428;-1.994;2023-11-22T08:44:55;25.57;;;10.90;;
66663;SDS011;59683;51.428;-1.994;2023-11-22T08:47:21;23.10;;;10.17;;
66663;SDS011;59683;51.428;-1.994;2023-11-22T08:49:46;22.30;;;11.33;;
66663;SDS011;59683;51.428;-1.994;2023-11-22T08:52:13;27.85;;;11.05;;
66663;SDS011;59683;51.428;-1.994;2023-11-22T08:54:38;24.63;;;10.00;;
66663;SDS011;59683;51.428;-1.994;2023-11-22T08:57:04;22.40;;;9.57;;
66663;SDS011;59683;51.428;-1.994;2023-11-22T08:59:31;22.08;;;10.32;;
66663;SDS011;59683;51.428;-1.994;2023-11-22T09:01:57;19.02;;;8.73;;
66663;SDS011;59683;51.428;-1.994;2023-11-22T09:04:23;21.87;;;9.67;;
66663;SDS011;59683;51.428;-1.994;2023-11-22T09:06:51;21.65;;;8.55;;
66663;SDS011;59683;51.428;-1.994;2023-11-22T09:09:16;20.07;;;8.63;;
66663;SDS011;59683;51.428;-1.994;2023-11-22T09:11:41;19.30;;;8.70;;
66663;SDS011;59683;51.428;-1.994;2023-11-22T09:14:07;19.40;;;7.90;;
66663;SDS011;59683;51.428;-1.994;2023-11-22T09:16:38;20.05;;;7.90;;
66663;SDS011;59683;51.428;-1.994;2023-11-22T09:19:04;15.07;;;7.63;;
66663;SDS011;59683;51.428;-1.994;2023-11-22T09:21:31;16.13;;;8.10;;
66663;SDS011;59683;51.428;-1.994;2023-11-22T09:23:57;16.42;;;7.32;;
66663;SDS011;59683;51.428;-1.994;2023-11-22T09:26:23;14.30;;;7.18;;
66663;SDS011;59683;51.428;-1.994;2023-11-22T09:28:49;20.17;;;8.03;;
66663;SDS011;59683;51.428;-1.994;2023-11-22T09:31:14;19.60;;;7.53;;
66663;SDS011;59683;51.428;-1.994;2023-11-22T09:33:43;14.52;;;6.80;;
66663;SDS011;59683;51.428;-1.994;2023-11-22T09:36:08;15.07;;;6.23;;
66663;SDS011;59683;51.428;-1.994;2023-11-22T09:38:34;13.50;;;7.03;;
66663;SDS011;59683;51.428;-1.994;2023-11-22T09:40:59;9.90;;;6.00;;
66663;SDS011;59683;51.428;-1.994;2023-11-22T09:43:25;10.47;;;6.50;;
66663;SDS011;59683;51.428;-1.994;2023-11-22T09:45:51;15.63;;;6.57;;
66663;SDS011;59683;51.428;-1.994;2023-11-22T09:48:20;13.90;;;5.88;;
66663;SDS011;59683;51.428;-1.994;2023-11-22T09:54:11;10.13;;;4.43;;
66663;SDS011;59683;51.428;-1.994;2023-11-22T09:56:19;10.23;;;4.97;;
66663;SDS011;59683;51.428;-1.994;2023-11-22T09:58:45;11.87;;;5.03;;
66663;SDS011;59683;51.428;-1.994;2023-11-22T10:01:14;10.77;;;4.50;;
66663;SDS011;59683;51.428;-1.994;2023-11-22T10:03:42;10.90;;;4.30;;
66663;SDS011;59683;51.428;-1.994;2023-11-22T10:06:07;9.60;;;4.37;;
66663;SDS011;59683;51.428;-1.994;2023-11-22T10:08:33;8.47;;;4.20;;
66663;SDS011;59683;51.428;-1.994;2023-11-22T10:11:00;10.20;;;5.50;;
66663;SDS011;59683;51.428;-1.994;2023-11-22T10:13:26;11.83;;;4.73;;
66663;SDS011;59683;51.428;-1.994;2023-11-22T10:15:52;13.70;;;5.80;;
66663;SDS011;59683;51.428;-1.994;2023-11-22T10:18:18;10.93;;;4.53;;
66663;SDS011;59683;51.428;-1.994;2023-11-22T10:20:45;32.73;;;14.23;;
66663;SDS011;59683;51.428;-1.994;2023-11-22T10:23:15;34.72;;;15.63;;
66663;SDS011;59683;51.428;-1.994;2023-11-22T10:25:49;17.93;;;9.37;;
66663;SDS011;59683;51.428;-1.994;2023-11-22T10:28:17;19.53;;;10.47;;
66663;SDS011;59683;51.428;-1.994;2023-11-22T10:30:45;19.20;;;8.73;;
66663;SDS011;59683;51.428;-1.994;2023-11-22T10:33:11;14.30;;;6.47;;
66663;SDS011;59683;51.428;-1.994;2023-11-22T10:35:44;11.60;;;4.63;;
66663;SDS011;59683;51.428;-1.994;2023-11-22T10:38:10;13.82;;;6.57;;
66663;SDS011;59683;51.428;-1.994;2023-11-22T10:40:39;12.57;;;4.30;;
66663;SDS011;59683;51.428;-1.994;2023-11-22T10:43:06;10.50;;;4.10;;
66663;SDS011;59683;51.428;-1.994;2023-11-22T10:45:33;10.87;;;3.33;;
66663;SDS011;59683;51.428;-1.994;2023-11-22T10:48:00;11.87;;;3.10;;
66663;SDS011;59683;51.428;-1.994;2023-11-22T10:50:25;6.40;;;2.73;;
66663;SDS011;59683;51.428;-1.994;2023-11-22T10:52:51;6.10;;;2.43;;
66663;SDS011;59683;51.428;-1.994;2023-11-22T10:55:21;4.60;;;2.50;;
66663;SDS011;59683;51.428;-1.994;2023-11-22T10:57:51;8.93;;;3.30;;
66663;SDS011;59683;51.428;-1.994;2023-11-22T11:00:21;9.20;;;3.20;;
66663;SDS011;59683;51.428;-1.994;2023-11-22T11:02:53;10.37;;;4.20;;
66663;SDS011;59683;51.428;-1.994;2023-11-22T11:05:25;28.37;;;14.33;;
66663;SDS011;59683;51.428;-1.994;2023-11-22T11:07:58;22.58;;;12.40;;
66663;SDS011;59683;51.428;-1.994;2023-11-22T11:10:28;13.87;;;6.70;;
66663;SDS011;59683;51.428;-1.994;2023-11-22T11:12:55;9.13;;;3.50;;
66663;SDS011;59683;51.428;-1.994;2023-11-22T11:15:21;7.90;;;2.60;;
66663;SDS011;59683;51.428;-1.994;2023-11-22T11:17:47;6.93;;;2.40;;
66663;SDS011;59683;51.428;-1.994;2023-11-22T11:20:18;5.97;;;2.40;;
66663;SDS011;59683;51.428;-1.994;2023-11-22T11:22:46;10.30;;;3.45;;
66663;SDS011;59683;51.428;-1.994;2023-11-22T11:25:13;9.53;;;2.80;;
66663;SDS011;59683;51.428;-1.994;2023-11-22T11:27:41;7.07;;;3.53;;
66663;SDS011;59683;51.428;-1.994;2023-11-22T11:32:57;8.32;;;2.88;;
66663;SDS011;59683;51.428;-1.994;2023-11-22T11:35:38;8.20;;;2.43;;
66663;SDS011;59683;51.428;-1.994;2023-11-22T11:38:14;8.40;;;3.30;;
66663;SDS011;59683;51.428;-1.994;2023-11-22T11:40:42;9.50;;;2.73;;
66663;SDS011;59683;51.428;-1.994;2023-11-22T11:43:09;8.53;;;3.27;;
66663;SDS011;59683;51.428;-1.994;2023-11-22T11:45:39;8.70;;;3.70;;
66663;SDS011;59683;51.428;-1.994;2023-11-22T11:48:10;5.63;;;2.90;;
66663;SDS011;59683;51.428;-1.994;2023-11-22T11:50:37;11.33;;;3.50;;
66663;SDS011;59683;51.428;-1.994;2023-11-22T11:53:02;10.90;;;4.37;;
66663;SDS011;59683;51.428;-1.994;2023-11-22T11:55:29;14.07;;;5.43;;
66663;SDS011;59683;51.428;-1.994;2023-11-22T11:57:55;13.13;;;5.53;;
66663;SDS011;59683;51.428;-1.994;2023-11-22T12:00:21;11.77;;;2.53;;
66663;SDS011;59683;51.428;-1.994;2023-11-22T12:02:49;9.27;;;2.70;;
66663;SDS011;59683;51.428;-1.994;2023-11-22T12:05:14;13.80;;;5.33;;
66663;SDS011;59683;51.428;-1.994;2023-11-22T12:07:40;45.27;;;25.47;;
66663;SDS011;59683;51.428;-1.994;2023-11-22T12:10:05;36.87;;;18.10;;
66663;SDS011;59683;51.428;-1.994;2023-11-22T12:12:32;9.80;;;3.80;;
66663;SDS011;59683;51.428;-1.994;2023-11-22T12:14:57;8.80;;;3.23;;
66663;SDS011;59683;51.428;-1.994;2023-11-22T12:17:24;11.13;;;4.03;;
66663;SDS011;59683;51.428;-1.994;2023-11-22T12:19:51;8.63;;;3.37;;
66663;SDS011;59683;51.428;-1.994;2023-11-22T12:22:16;33.27;;;13.37;;
66663;SDS011;59683;51.428;-1.994;2023-11-22T12:24:42;13.47;;;6.20;;
66663;SDS011;59683;51.428;-1.994;2023-11-22T12:27:10;14.20;;;7.17;;
66663;SDS011;59683;51.428;-1.994;2023-11-22T12:29:36;54.00;;;25.83;;
66663;SDS011;59683;51.428;-1.994;2023-11-22T12:32:02;60.87;;;30.93;;
66663;SDS011;59683;51.428;-1.994;2023-11-22T12:34:27;17.30;;;7.77;;
66663;SDS011;59683;51.428;-1.994;2023-11-22T12:36:55;12.70;;;5.63;;
66663;SDS011;59683;51.428;-1.994;2023-11-22T12:39:21;15.10;;;5.50;;
66663;SDS011;59683;51.428;-1.994;2023-11-22T12:41:47;7.80;;;2.60;;
66663;SDS011;59683;51.428;-1.994;2023-11-22T12:44:15;9.43;;;2.50;;
66663;SDS011;59683;51.428;-1.994;2023-11-22T12:46:45;8.23;;;3.10;;
66663;SDS011;59683;51.428;-1.994;2023-11-22T12:49:17;8.13;;;2.67;;
66663;SDS011;59683;51.428;-1.994;2023-11-22T12:51:50;9.87;;;2.97;;
66663;SDS011;59683;51.428;-1.994;2023-11-22T12:54:25;17.57;;;4.87;;
66663;SDS011;59683;51.428;-1.994;2023-11-22T12:56:51;11.27;;;4.27;;
66663;SDS011;59683;51.428;-1.994;2023-11-22T12:59:25;10.10;;;4.17;;
66663;SDS011;59683;51.428;-1.994;2023-11-22T13:01:53;12.50;;;3.53;;
66663;SDS011;59683;51.428;-1.994;2023-11-22T13:04:19;17.67;;;5.03;;
66663;SDS011;59683;51.428;-1.994;2023-11-22T13:06:44;12.47;;;3.47;;
66663;SDS011;59683;51.428;-1.994;2023-11-22T13:09:10;10.57;;;2.80;;
66663;SDS011;59683;51.428;-1.994;2023-11-22T13:11:40;14.75;;;5.45;;
66663;SDS011;59683;51.428;-1.994;2023-11-22T13:14:07;12.33;;;3.57;;
66663;SDS011;59683;51.428;-1.994;2023-11-22T13:16:33;12.67;;;3.90;;
66663;SDS011;59683;51.428;-1.994;2023-11-22T13:18:59;13.33;;;3.90;;
66663;SDS011;59683;51.428;-1.994;2023-11-22T13:21:25;9.77;;;3.30;;
66663;SDS011;59683;51.428;-1.994;2023-11-22T13:23:51;10.17;;;4.23;;
66663;SDS011;59683;51.428;-1.994;2023-11-22T13:26:17;10.43;;;3.80;;
66663;SDS011;59683;51.428;-1.994;2023-11-22T13:28:42;9.67;;;3.60;;
66663;SDS011;59683;51.428;-1.994;2023-11-22T13:31:08;15.03;;;4.17;;
66663;SDS011;59683;51.428;-1.994;2023-11-22T13:33:34;12.83;;;5.73;;
66663;SDS011;59683;51.428;-1.994;2023-11-22T13:36:00;16.00;;;5.77;;
66663;SDS011;59683;51.428;-1.994;2023-11-22T13:38:25;16.47;;;6.80;;
66663;SDS011;59683;51.428;-1.994;2023-11-22T13:40:51;15.50;;;5.57;;
66663;SDS011;59683;51.428;-1.994;2023-11-22T13:43:17;12.13;;;4.97;;
66663;SDS011;59683;51.428;-1.994;2023-11-22T13:45:43;16.20;;;5.60;;
66663;SDS011;59683;51.428;-1.994;2023-11-22T13:48:10;11.37;;;4.80;;
66663;SDS011;59683;51.428;-1.994;2023-11-22T13:50:36;16.30;;;5.77;;
66663;SDS011;59683;51.428;-1.994;2023-11-22T13:53:02;112.27;;;47.77;;
66663;SDS011;59683;51.428;-1.994;2023-11-22T13:55:29;84.13;;;36.97;;
66663;SDS011;59683;51.428;-1.994;2023-11-22T13:57:55;27.10;;;12.97;;
66663;SDS011;59683;51.428;-1.994;2023-11-22T14:00:22;28.17;;;10.63;;
66663;SDS011;59683;51.428;-1.994;2023-11-22T14:02:55;20.77;;;10.20;;
66663;SDS011;59683;51.428;-1.994;2023-11-22T14:05:25;61.63;;;28.77;;
66663;SDS011;59683;51.428;-1.994;2023-11-22T14:07:54;69.30;;;28.37;;
66663;SDS011;59683;51.428;-1.994;2023-11-22T14:10:19;75.03;;;29.80;;
66663;SDS011;59683;51.428;-1.994;2023-11-22T14:12:47;112.50;;;47.33;;
66663;SDS011;59683;51.428;-1.994;2023-11-22T14:15:13;187.63;;;81.53;;
66663;SDS011;59683;51.428;-1.994;2023-11-22T14:17:39;66.13;;;29.40;;
66663;SDS011;59683;51.428;-1.994;2023-11-22T14:22:37;135.18;;;58.53;;
66663;SDS011;59683;51.428;-1.994;2023-11-22T14:25:07;129.13;;;56.57;;